createdAt,value
2022-11-27T00:01:33.236Z,7.22
2022-11-27T00:04:02.993Z,7.90
2022-11-27T00:06:31.071Z,7.15
2022-11-27T00:09:06.099Z,6.32
2022-11-27T00:11:33.353Z,6.95
2022-11-27T00:14:01.156Z,5.47
2022-11-27T00:16:31.653Z,6.30
2022-11-27T00:18:58.813Z,3.95
2022-11-27T00:21:32.102Z,4.30
2022-11-27T00:24:01.102Z,4.78
2022-11-27T00:26:33.079Z,5.30
2022-11-27T00:29:03.077Z,4.13
2022-11-27T00:31:34.160Z,4.30
2022-11-27T00:34:08.127Z,4.20
2022-11-27T00:36:36.122Z,3.97
2022-11-27T00:39:05.161Z,3.85
2022-11-27T00:41:32.596Z,3.63
2022-11-27T00:43:59.353Z,3.60
2022-11-27T00:46:29.829Z,3.53
2022-11-27T00:48:58.377Z,3.42
2022-11-27T00:51:26.143Z,2.50
2022-11-27T00:53:53.505Z,2.95
2022-11-27T00:56:24.254Z,2.45
2022-11-27T00:58:51.958Z,2.22
2022-11-27T01:01:21.573Z,2.70
2022-11-27T01:03:51.914Z,2.70
2022-11-27T01:06:20.393Z,2.08
2022-11-27T01:08:48.042Z,2.35
2022-11-27T01:11:24.847Z,1.80
2022-11-27T01:13:52.564Z,2.08
2022-11-27T01:16:22.360Z,1.75
2022-11-27T01:18:50.626Z,2.30
2022-11-27T01:21:20.778Z,1.98
2022-11-27T01:23:48.768Z,2.20
2022-11-27T01:26:17.899Z,1.95
2022-11-27T01:28:45.320Z,2.13
2022-11-27T01:31:18.655Z,1.80
2022-11-27T01:33:46.423Z,2.08
2022-11-27T01:36:15.526Z,1.40
2022-11-27T01:38:42.537Z,1.30
2022-11-27T01:41:27.744Z,1.80
2022-11-27T01:43:54.595Z,1.50
2022-11-27T01:46:21.279Z,1.60
2022-11-27T01:48:48.706Z,1.75
2022-11-27T01:51:15.847Z,1.30
2022-11-27T01:53:43.086Z,1.70
2022-11-27T01:56:10.128Z,1.48
2022-11-27T01:58:37.530Z,1.58
2022-11-27T02:01:05.351Z,1.67
2022-11-27T02:03:34.527Z,1.60
2022-11-27T02:06:01.283Z,1.65
2022-11-27T02:08:28.226Z,1.83
2022-11-27T02:11:01.850Z,5.22
2022-11-27T02:14:24.293Z,2.78
2022-11-27T02:17:18.337Z,2.13
2022-11-27T02:20:22.007Z,3.88
2022-11-27T02:22:57.708Z,3.15
2022-11-27T02:25:49.802Z,3.20
2022-11-27T02:28:26.123Z,4.68
2022-11-27T02:31:03.648Z,3.03
2022-11-27T02:33:35.415Z,2.60
2022-11-27T02:36:14.796Z,2.50
2022-11-27T02:38:47.020Z,3.28
2022-11-27T02:42:00.530Z,2.72
2022-11-27T02:44:31.954Z,3.20
2022-11-27T02:46:58.882Z,2.20
2022-11-27T02:49:26.758Z,2.22
2022-11-27T02:51:57.985Z,1.70
2022-11-27T02:54:29.896Z,1.80
2022-11-27T02:57:00.908Z,3.17
2022-11-27T02:59:31.824Z,2.35
2022-11-27T03:02:05.737Z,2.10
2022-11-27T03:04:39.368Z,1.38
2022-11-27T03:07:12.488Z,1.30
2022-11-27T03:09:44.207Z,1.52
2022-11-27T03:12:12.077Z,1.50
2022-11-27T03:14:42.124Z,1.63
2022-11-27T03:17:18.382Z,1.30
2022-11-27T03:20:03.584Z,1.40
2022-11-27T03:22:31.774Z,2.40
2022-11-27T03:24:59.350Z,2.63
2022-11-27T03:27:32.636Z,2.70
2022-11-27T03:30:01.344Z,1.92
2022-11-27T03:32:30.471Z,1.88
2022-11-27T03:34:57.463Z,1.38
2022-11-27T03:37:24.779Z,1.73
2022-11-27T03:39:51.894Z,1.50
2022-11-27T03:42:36.931Z,1.42
2022-11-27T03:45:30.153Z,1.70
2022-11-27T03:48:36.279Z,1.23
2022-11-27T03:51:07.489Z,1.48
2022-11-27T03:53:58.891Z,1.50
2022-11-27T03:56:40.718Z,1.30
2022-11-27T03:59:28.533Z,1.38
2022-11-27T04:01:55.405Z,1.30
2022-11-27T04:04:22.285Z,1.10
2022-11-27T04:06:49.294Z,1.25
2022-11-27T04:09:16.096Z,0.98
2022-11-27T04:11:42.859Z,1.33
2022-11-27T04:14:09.629Z,1.00
2022-11-27T04:16:36.400Z,0.90
2022-11-27T04:19:03.386Z,1.13
2022-11-27T04:21:30.201Z,1.00
2022-11-27T04:23:56.932Z,1.20
2022-11-27T04:26:24.671Z,1.50
2022-11-27T04:28:51.504Z,1.27
2022-11-27T04:31:18.846Z,1.17
2022-11-27T04:33:45.600Z,1.10
2022-11-27T04:36:12.571Z,1.10
2022-11-27T04:38:39.296Z,0.98
2022-11-27T04:41:06.042Z,1.17
2022-11-27T04:43:32.754Z,0.95
2022-11-27T04:45:59.524Z,1.42
2022-11-27T04:48:26.249Z,1.00
2022-11-27T04:50:55.242Z,1.13
2022-11-27T04:53:21.965Z,1.10
2022-11-27T04:55:48.711Z,1.80
2022-11-27T04:58:15.444Z,1.27
2022-11-27T05:00:42.428Z,1.63
2022-11-27T05:03:09.282Z,1.08
2022-11-27T05:05:36.355Z,0.90
2022-11-27T05:08:03.383Z,1.20
2022-11-27T05:10:30.263Z,1.40
2022-11-27T05:12:56.962Z,1.40
2022-11-27T05:15:23.701Z,1.00
2022-11-27T05:17:50.423Z,0.80
2022-11-27T05:20:17.524Z,1.10
2022-11-27T05:22:45.084Z,1.30
2022-11-27T05:25:11.807Z,1.05
2022-11-27T05:27:38.520Z,1.35
2022-11-27T05:30:06.109Z,1.33
2022-11-27T05:32:32.842Z,1.15
2022-11-27T05:34:59.636Z,1.60
2022-11-27T05:37:26.518Z,1.30
2022-11-27T05:39:53.473Z,1.40
2022-11-27T05:42:20.308Z,1.20
2022-11-27T05:44:46.989Z,1.85
2022-11-27T05:47:13.772Z,3.00
2022-11-27T05:49:40.510Z,2.88
2022-11-27T05:52:07.256Z,3.45
2022-11-27T05:54:33.996Z,2.97
2022-11-27T05:57:00.817Z,2.50
2022-11-27T05:59:27.591Z,1.90
2022-11-27T06:01:54.391Z,2.47
2022-11-27T06:04:21.192Z,2.65
2022-11-27T06:06:50.782Z,2.47
2022-11-27T06:09:17.494Z,4.10
2022-11-27T06:11:44.392Z,2.95
2022-11-27T06:14:11.404Z,2.45
2022-11-27T06:16:38.359Z,2.40
2022-11-27T06:19:05.228Z,2.33
2022-11-27T06:21:34.778Z,1.95
2022-11-27T06:24:03.237Z,2.20
2022-11-27T06:26:32.491Z,1.90
2022-11-27T06:29:00.953Z,2.15
2022-11-27T06:31:30.741Z,1.52
2022-11-27T06:33:57.745Z,1.70
2022-11-27T06:36:28.205Z,1.70
2022-11-27T06:38:55.287Z,2.08
2022-11-27T06:41:24.720Z,1.63
2022-11-27T06:43:51.639Z,1.65
2022-11-27T06:46:20.804Z,1.77
2022-11-27T06:48:49.208Z,1.90
2022-11-27T06:51:23.570Z,1.60
2022-11-27T06:53:51.296Z,1.80
2022-11-27T06:56:21.415Z,2.45
2022-11-27T06:58:52.165Z,2.28
2022-11-27T07:01:20.007Z,2.13
2022-11-27T07:03:46.866Z,1.88
2022-11-27T07:06:17.791Z,2.22
2022-11-27T07:08:44.845Z,2.20
2022-11-27T07:11:13.131Z,2.00
2022-11-27T07:13:39.949Z,1.85
2022-11-27T07:16:09.711Z,2.67
2022-11-27T07:18:49.987Z,2.13
2022-11-27T07:21:17.135Z,2.20
2022-11-27T07:23:44.006Z,2.80
2022-11-27T07:26:18.125Z,2.80
2022-11-27T07:28:45.930Z,2.60
2022-11-27T07:31:15.073Z,2.85
2022-11-27T07:33:42.007Z,3.10
2022-11-27T07:36:14.564Z,2.60
2022-11-27T07:38:41.726Z,1.70
2022-11-27T07:41:09.003Z,1.85
2022-11-27T07:43:36.952Z,2.08
2022-11-27T07:46:13.945Z,1.67
2022-11-27T07:48:40.931Z,1.67
2022-11-27T07:51:09.444Z,1.60
2022-11-27T07:53:38.447Z,2.00
2022-11-27T07:56:06.660Z,2.10
2022-11-27T07:58:33.727Z,2.83
2022-11-27T08:01:00.979Z,3.60
2022-11-27T08:03:27.967Z,3.58
2022-11-27T08:05:54.750Z,5.43
2022-11-27T08:08:21.524Z,5.80
2022-11-27T08:10:51.215Z,4.57
2022-11-27T08:13:20.849Z,4.80
2022-11-27T08:15:48.329Z,4.72
2022-11-27T08:18:15.195Z,4.45
2022-11-27T08:20:41.968Z,4.35
2022-11-27T08:23:09.012Z,4.00
2022-11-27T08:25:37.983Z,3.03
2022-11-27T08:28:05.058Z,2.83
2022-11-27T08:30:31.891Z,3.22
2022-11-27T08:32:58.663Z,2.55
2022-11-27T08:35:25.529Z,4.75
2022-11-27T08:37:52.708Z,7.63
2022-11-27T08:40:19.843Z,13.30
2022-11-27T08:42:46.761Z,14.02
2022-11-27T08:45:13.904Z,14.88
2022-11-27T08:47:42.356Z,11.25
2022-11-27T08:50:09.674Z,6.47
2022-11-27T08:52:36.600Z,4.32
2022-11-27T08:55:03.907Z,3.72
2022-11-27T08:57:30.746Z,4.50
2022-11-27T08:59:57.466Z,3.92
2022-11-27T09:02:24.367Z,3.17
2022-11-27T09:04:51.265Z,3.53
2022-11-27T09:07:18.304Z,2.85
2022-11-27T09:09:45.149Z,3.75
2022-11-27T09:12:12.704Z,2.22
2022-11-27T09:14:40.142Z,3.00
2022-11-27T09:17:07.253Z,3.85
2022-11-27T09:19:34.005Z,2.90
2022-11-27T09:22:00.941Z,2.20
2022-11-27T09:24:27.677Z,3.00
2022-11-27T09:26:54.532Z,2.83
2022-11-27T09:29:21.687Z,2.10
2022-11-27T09:31:48.602Z,2.90
2022-11-27T09:34:16.726Z,2.90
2022-11-27T09:36:43.854Z,2.78
2022-11-27T09:39:10.774Z,2.80
2022-11-27T09:41:45.233Z,3.03
2022-11-27T09:44:17.913Z,2.60
2022-11-27T09:46:45.458Z,3.30
2022-11-27T09:49:22.917Z,2.97
2022-11-27T09:52:01.905Z,2.65
2022-11-27T09:55:11.406Z,5.03
2022-11-27T09:57:41.961Z,5.60
2022-11-27T10:00:15.069Z,4.82
2022-11-27T10:02:45.826Z,3.28
2022-11-27T10:05:25.884Z,2.40
2022-11-27T10:08:06.417Z,2.42
2022-11-27T10:11:01.609Z,2.22
2022-11-27T10:13:47.113Z,1.88
2022-11-27T10:16:29.437Z,2.60
2022-11-27T10:19:08.354Z,2.10
2022-11-27T10:21:54.816Z,3.05
2022-11-27T10:25:20.126Z,2.97
2022-11-27T10:28:07.704Z,3.60
2022-11-27T10:30:39.877Z,2.47
2022-11-27T10:33:20.433Z,2.28
2022-11-27T10:35:49.145Z,2.25
2022-11-27T10:38:22.456Z,2.03
2022-11-27T10:41:18.566Z,1.90
2022-11-27T10:44:03.836Z,4.45
2022-11-27T10:46:36.841Z,2.40
2022-11-27T10:49:03.790Z,2.10
2022-11-27T10:51:38.996Z,7.63
2022-11-27T10:54:12.272Z,10.55
2022-11-27T10:56:56.243Z,3.03
2022-11-27T10:59:33.049Z,10.57
2022-11-27T11:02:03.534Z,9.40
2022-11-27T11:04:39.297Z,2.72
2022-11-27T11:07:25.077Z,2.33
2022-11-27T11:09:52.451Z,4.05
2022-11-27T11:12:22.011Z,4.65
2022-11-27T11:14:59.559Z,3.15
2022-11-27T11:17:37.951Z,2.15
2022-11-27T11:20:34.090Z,4.82
2022-11-27T11:23:00.904Z,2.60
2022-11-27T11:25:27.774Z,1.88
2022-11-27T11:27:54.688Z,1.60
2022-11-27T11:30:24.200Z,2.20
2022-11-27T11:32:59.744Z,2.50
2022-11-27T11:35:37.257Z,2.20
2022-11-27T11:38:07.761Z,1.40
2022-11-27T11:40:37.299Z,1.35
2022-11-27T11:43:10.139Z,1.95
2022-11-27T11:45:45.720Z,2.15
2022-11-27T11:48:27.009Z,1.65
2022-11-27T11:51:10.545Z,1.40
2022-11-27T11:53:40.299Z,3.55
2022-11-27T11:56:31.382Z,2.53
2022-11-27T11:59:45.167Z,1.90
2022-11-27T12:02:46.747Z,2.10
2022-11-27T12:05:19.561Z,3.60
2022-11-27T12:07:52.726Z,1.80
2022-11-27T12:10:53.786Z,1.08
2022-11-27T12:13:31.636Z,1.63
2022-11-27T12:16:04.717Z,1.38
2022-11-27T12:18:31.522Z,1.30
2022-11-27T12:21:15.929Z,1.55
2022-11-27T12:24:07.636Z,1.50
2022-11-27T12:26:59.530Z,1.60
2022-11-27T12:30:24.304Z,1.52
2022-11-27T12:33:15.230Z,2.78
2022-11-27T12:35:50.847Z,3.17
2022-11-27T12:38:42.553Z,2.03
2022-11-27T12:41:09.364Z,3.13
2022-11-27T12:43:41.842Z,2.70
2022-11-27T12:46:44.092Z,3.05
2022-11-27T12:49:17.745Z,2.30
2022-11-27T12:51:51.787Z,1.55
2022-11-27T12:54:22.980Z,1.80
2022-11-27T12:56:55.187Z,2.25
2022-11-27T12:59:37.048Z,1.50
2022-11-27T13:03:13.825Z,0.98
2022-11-27T13:05:47.572Z,1.35
2022-11-27T13:08:23.504Z,1.20
2022-11-27T13:10:55.371Z,2.00
2022-11-27T13:13:30.327Z,9.00
2022-11-27T13:16:21.285Z,5.88
2022-11-27T13:18:57.936Z,1.77
2022-11-27T13:21:29.447Z,1.67
2022-11-27T13:24:00.174Z,2.17
2022-11-27T13:26:35.666Z,1.80
2022-11-27T13:29:15.357Z,1.73
2022-11-27T13:31:44.691Z,1.73
2022-11-27T13:34:27.002Z,1.50
2022-11-27T13:37:06.724Z,1.60
2022-11-27T13:39:42.605Z,1.10
2022-11-27T13:42:21.205Z,1.30
2022-11-27T13:45:00.808Z,1.17
2022-11-27T13:47:30.286Z,1.42
2022-11-27T13:50:04.810Z,1.60
2022-11-27T13:52:32.063Z,1.85
2022-11-27T13:55:01.875Z,1.60
2022-11-27T13:57:30.558Z,1.60
2022-11-27T13:59:59.455Z,1.60
2022-11-27T14:02:49.731Z,1.70
2022-11-27T14:05:22.312Z,1.77
2022-11-27T14:07:52.473Z,1.50
2022-11-27T14:10:30.487Z,1.58
2022-11-27T14:13:06.340Z,5.28
2022-11-27T14:15:40.958Z,3.67
2022-11-27T14:18:15.510Z,1.85
2022-11-27T14:20:50.033Z,1.40
2022-11-27T14:23:47.182Z,1.75
2022-11-27T14:26:15.457Z,1.60
2022-11-27T14:28:45.843Z,1.30
2022-11-27T14:31:26.141Z,1.38
2022-11-27T14:34:14.065Z,1.67
2022-11-27T14:36:40.233Z,2.50
2022-11-27T14:39:06.975Z,1.80
2022-11-27T14:41:34.097Z,1.98
2022-11-27T14:44:01.434Z,2.55
2022-11-27T14:46:29.128Z,2.30
2022-11-27T14:48:57.228Z,2.33
2022-11-27T14:51:35.902Z,2.20
2022-11-27T14:54:05.740Z,2.20
2022-11-27T14:56:35.534Z,1.90
2022-11-27T14:59:03.488Z,2.00
2022-11-27T15:01:39.186Z,1.75
2022-11-27T15:04:25.896Z,2.83
2022-11-27T15:06:53.212Z,2.58
2022-11-27T15:09:31.621Z,2.40
2022-11-27T15:12:29.434Z,2.20
2022-11-27T15:15:15.733Z,2.10
2022-11-27T15:17:45.202Z,2.10
2022-11-27T15:20:21.685Z,2.80
2022-11-27T15:22:56.875Z,3.92
2022-11-27T15:25:33.113Z,5.10
2022-11-27T15:28:03.736Z,5.88
2022-11-27T15:30:32.464Z,6.95
2022-11-27T15:32:59.372Z,6.90
2022-11-27T15:35:32.608Z,9.55
2022-11-27T15:38:08.240Z,11.02
2022-11-27T15:40:38.096Z,10.98
2022-11-27T15:43:13.588Z,8.18
2022-11-27T15:45:42.461Z,11.55
2022-11-27T15:48:15.621Z,8.38
2022-11-27T15:50:45.456Z,5.80
2022-11-27T15:53:17.132Z,4.38
2022-11-27T15:55:44.091Z,5.70
2022-11-27T15:58:10.989Z,6.50
2022-11-27T16:00:37.911Z,8.55
2022-11-27T16:03:04.865Z,6.63
2022-11-27T16:05:31.619Z,15.88
2022-11-27T16:07:58.524Z,9.55
2022-11-27T16:10:25.404Z,8.98
2022-11-27T16:12:55.212Z,9.75
2022-11-27T16:15:23.883Z,7.75
2022-11-27T16:17:51.998Z,17.65
2022-11-27T16:20:18.782Z,26.48
2022-11-27T16:22:45.631Z,28.40
2022-11-27T16:25:16.479Z,18.13
2022-11-27T16:27:43.472Z,20.55
2022-11-27T16:30:11.606Z,17.33
2022-11-27T16:32:39.490Z,15.45
2022-11-27T16:35:07.672Z,17.00
2022-11-27T16:37:35.010Z,20.13
2022-11-27T16:40:03.355Z,18.65
2022-11-27T16:42:30.356Z,18.83
2022-11-27T16:44:57.558Z,18.00
2022-11-27T16:47:30.571Z,15.48
2022-11-27T16:50:01.109Z,14.95
2022-11-27T16:52:28.766Z,16.73
2022-11-27T16:54:56.700Z,17.67
2022-11-27T16:57:23.982Z,17.90
2022-11-27T16:59:51.369Z,16.98
2022-11-27T17:02:19.906Z,18.10
2022-11-27T17:04:48.902Z,18.27
2022-11-27T17:07:15.892Z,17.42
2022-11-27T17:09:42.731Z,18.13
2022-11-27T17:12:09.639Z,21.60
2022-11-27T17:14:37.293Z,18.90
2022-11-27T17:17:06.506Z,20.75
2022-11-27T17:19:35.332Z,20.17
2022-11-27T17:22:02.297Z,17.73
2022-11-27T17:24:35.936Z,17.05
2022-11-27T17:27:05.554Z,15.68
2022-11-27T17:29:35.184Z,15.35
2022-11-27T17:32:03.421Z,20.52
2022-11-27T17:34:30.303Z,22.35
2022-11-27T17:36:58.674Z,22.50
2022-11-27T17:39:26.965Z,22.38
2022-11-27T17:41:53.811Z,20.92
2022-11-27T17:44:20.646Z,16.70
2022-11-27T17:46:49.974Z,12.45
2022-11-27T17:49:19.743Z,14.25
2022-11-27T17:51:48.871Z,13.40
2022-11-27T17:54:15.945Z,14.95
2022-11-27T17:56:43.524Z,16.90
2022-11-27T17:59:10.818Z,19.15
2022-11-27T18:01:39.348Z,15.80
2022-11-27T18:04:07.579Z,15.65
2022-11-27T18:06:36.614Z,14.48
2022-11-27T18:09:04.137Z,13.40
2022-11-27T18:11:33.795Z,12.10
2022-11-27T18:14:01.587Z,14.35
2022-11-27T18:16:33.867Z,13.05
2022-11-27T18:19:04.972Z,14.02
2022-11-27T18:21:32.104Z,15.07
2022-11-27T18:29:35.149Z,14.15
2022-11-27T18:32:02.284Z,18.85
2022-11-27T18:34:29.434Z,18.92
2022-11-27T18:36:59.455Z,22.17
2022-11-27T18:39:27.257Z,21.50
2022-11-27T18:41:57.242Z,17.05
2022-11-27T18:44:24.189Z,17.10
2022-11-27T18:46:51.350Z,10.05
2022-11-27T18:49:18.555Z,10.00
2022-11-27T18:51:46.684Z,20.00
2022-11-27T18:54:13.528Z,28.80
2022-11-27T18:56:40.417Z,29.50
2022-11-27T18:59:09.176Z,35.47
2022-11-27T19:01:42.232Z,30.02
2022-11-27T19:04:12.084Z,29.45
2022-11-27T19:06:42.353Z,31.25
2022-11-27T19:09:11.577Z,27.15
2022-11-27T19:11:39.340Z,26.95
2022-11-27T19:14:06.626Z,26.50
2022-11-27T19:16:36.249Z,27.08
2022-11-27T19:19:04.876Z,26.02
2022-11-27T19:21:33.341Z,21.63
2022-11-27T19:24:02.633Z,22.85
2022-11-27T19:26:35.417Z,24.63
2022-11-27T19:29:08.259Z,22.63
2022-11-27T19:31:38.128Z,20.13
2022-11-27T19:34:06.483Z,17.67
2022-11-27T19:36:35.849Z,16.00
2022-11-27T19:39:11.766Z,15.23
2022-11-27T19:41:38.680Z,16.42
2022-11-27T19:44:07.136Z,18.38
2022-11-27T19:46:36.971Z,18.05
2022-11-27T19:49:12.236Z,18.33
2022-11-27T19:51:40.586Z,16.95
2022-11-27T19:54:10.620Z,16.08
2022-11-27T19:56:42.637Z,18.45
2022-11-27T19:59:11.263Z,18.60
2022-11-27T20:01:40.677Z,19.75
2022-11-27T20:04:10.760Z,18.60
2022-11-27T20:06:38.550Z,18.70
2022-11-27T20:09:06.008Z,14.85
2022-11-27T20:11:35.597Z,17.85
2022-11-27T20:14:05.341Z,15.98
2022-11-27T20:16:35.026Z,14.57
2022-11-27T20:19:05.678Z,15.23
2022-11-27T20:21:35.669Z,16.65
2022-11-27T20:24:03.755Z,20.10
2022-11-27T20:26:31.045Z,17.75
2022-11-27T20:28:59.333Z,15.85
2022-11-27T20:31:32.556Z,19.17
2022-11-27T20:34:02.579Z,18.85
2022-11-27T20:36:34.228Z,18.13
2022-11-27T20:39:02.063Z,15.13
2022-11-27T20:41:30.056Z,14.75
2022-11-27T20:43:59.974Z,16.10
2022-11-27T20:46:28.735Z,14.88
2022-11-27T20:48:56.855Z,15.05
2022-11-27T20:51:28.975Z,15.95
2022-11-27T20:53:58.828Z,18.42
2022-11-27T20:56:26.595Z,17.48
2022-11-27T20:58:53.557Z,18.48
2022-11-27T21:01:20.844Z,20.85
2022-11-27T21:03:50.606Z,23.10
2022-11-27T21:06:24.867Z,22.45
2022-11-27T21:08:52.793Z,17.33
2022-11-27T21:11:26.547Z,24.15
2022-11-27T21:13:58.927Z,17.95
2022-11-27T21:16:27.949Z,19.23
2022-11-27T21:19:02.571Z,28.15
2022-11-27T21:21:30.323Z,28.35
2022-11-27T21:23:58.901Z,27.60
2022-11-27T21:26:26.244Z,28.58
2022-11-27T21:28:53.619Z,30.60
2022-11-27T21:31:24.045Z,24.20
2022-11-27T21:33:54.197Z,30.30
2022-11-27T21:36:24.325Z,25.60
2022-11-27T21:38:51.490Z,23.02
2022-11-27T21:41:21.761Z,25.38
2022-11-27T21:43:53.398Z,24.10
2022-11-27T21:46:24.877Z,27.48
2022-11-27T21:48:53.859Z,28.17
2022-11-27T21:51:23.124Z,27.90
2022-11-27T21:53:52.696Z,23.35
2022-11-27T21:56:22.563Z,26.90
2022-11-27T21:58:49.802Z,27.48
2022-11-27T22:01:21.028Z,28.77
2022-11-27T22:03:50.397Z,27.60
2022-11-27T22:06:18.488Z,23.23
2022-11-27T22:08:47.678Z,22.55
2022-11-27T22:11:18.240Z,18.88
2022-11-27T22:13:45.510Z,18.67
2022-11-27T22:16:18.307Z,15.98
2022-11-27T22:18:45.941Z,13.23
2022-11-27T22:21:13.832Z,12.73
2022-11-27T22:23:42.302Z,12.90
2022-11-27T22:26:12.902Z,11.65
2022-11-27T22:29:09.338Z,12.20
2022-11-27T22:31:40.338Z,12.32
2022-11-27T22:34:12.000Z,13.05
2022-11-27T22:36:49.592Z,13.20
2022-11-27T22:39:26.909Z,13.95
2022-11-27T22:42:12.455Z,11.32
2022-11-27T22:44:51.886Z,10.57
2022-11-27T22:47:19.354Z,9.35
2022-11-27T22:49:46.282Z,8.77
2022-11-27T22:52:13.092Z,7.28
2022-11-27T22:54:40.283Z,7.25
2022-11-27T22:57:07.553Z,6.55
2022-11-27T22:59:34.860Z,5.85
2022-11-27T23:02:05.519Z,4.43
2022-11-27T23:04:33.717Z,6.45
2022-11-27T23:07:00.990Z,5.72
2022-11-27T23:09:28.775Z,5.25
2022-11-27T23:11:57.030Z,6.28
2022-11-27T23:14:24.897Z,6.35
2022-11-27T23:16:52.001Z,5.88
2022-11-27T23:19:19.209Z,4.60
2022-11-27T23:21:45.927Z,6.05
2022-11-27T23:24:15.993Z,5.13
2022-11-27T23:26:43.578Z,5.82
2022-11-27T23:29:10.524Z,6.55
2022-11-27T23:31:38.573Z,6.53
2022-11-27T23:34:10.609Z,6.75
2022-11-27T23:36:38.680Z,6.65
2022-11-27T23:39:07.125Z,6.28
2022-11-27T23:41:33.926Z,6.53
2022-11-27T23:44:01.684Z,6.50
2022-11-27T23:46:29.871Z,6.13
2022-11-27T23:48:59.640Z,5.25
2022-11-27T23:51:30.236Z,5.72
2022-11-27T23:53:58.009Z,4.60
2022-11-27T23:56:27.433Z,5.20
2022-11-27T23:58:56.164Z,6.30
